Time;durP1;ratioP1;P1;durP2;ratioP2;P2;SDS_P1;SDS_P2;PMS_P1;PMS_P2;Temp;Humidity;BMP_temperature;BMP_pressure;BME280_temperature;BME280_humidity;BME280_pressure;Samples;Min_cycle;Max_cycle;Signal;HPM_P1;HPM_P2
2022/03/11 07:14:16;;;;;;;;;49.00;41.50;;;;;;;;5118655;27;1432128;-70
2022/03/11 07:16:41;;;;;;;;;50.25;42.50;;;;;;;;5055902;27;22511;-71
2022/03/11 07:19:08;;;;;;;;;47.75;43.25;;;;;;;;5079916;28;12848;-71
2022/03/11 07:21:33;;;;;;;;;45.75;40.00;;;;;;;;5095097;28;13443;-72
2022/03/11 07:23:58;;;;;;;;;46.50;43.00;;;;;;;;5095189;28;11380;-71
2022/03/11 07:26:23;;;;;;;;;44.50;38.50;;;;;;;;5094569;28;10894;-71
2022/03/11 07:28:49;;;;;;;;;45.00;41.00;;;;;;;;5074957;28;12426;-73
2022/03/11 07:31:14;;;;;;;;;50.75;43.75;;;;;;;;5074431;28;12565;-71
2022/03/11 07:33:39;;;;;;;;;49.25;41.25;;;;;;;;5074463;28;13365;-73
2022/03/11 07:36:05;;;;;;;;;53.50;42.75;;;;;;;;5074678;28;12679;-73
2022/03/11 07:38:31;;;;;;;;;45.25;39.75;;;;;;;;5074247;28;12288;-72
2022/03/11 07:40:57;;;;;;;;;45.75;41.50;;;;;;;;5074033;28;12511;-72
2022/03/11 07:43:24;;;;;;;;;44.50;42.50;;;;;;;;5083115;28;12484;-72
2022/03/11 07:45:49;;;;;;;;;55.50;44.00;;;;;;;;5076244;28;10841;-71
2022/03/11 07:48:14;;;;;;;;;60.00;47.25;;;;;;;;5114694;28;13457;-72
2022/03/11 07:50:40;;;;;;;;;55.00;43.25;;;;;;;;5114774;28;14347;-71
2022/03/11 07:53:05;;;;;;;;;57.00;43.75;;;;;;;;5114512;28;11523;-71
2022/03/11 07:55:30;;;;;;;;;50.75;41.75;;;;;;;;5096993;28;10507;-70
2022/03/11 07:57:55;;;;;;;;;51.75;43.50;;;;;;;;5081366;28;10623;-70
2022/03/11 08:00:21;;;;;;;;;55.00;45.00;;;;;;;;5083300;28;11613;-70
2022/03/11 08:02:46;;;;;;;;;57.75;44.25;;;;;;;;5080985;28;11480;-71
2022/03/11 08:05:14;;;;;;;;;55.75;43.50;;;;;;;;5081969;28;11399;-71
2022/03/11 08:07:40;;;;;;;;;59.50;45.25;;;;;;;;5083261;28;11538;-71
2022/03/11 08:10:06;;;;;;;;;59.75;46.25;;;;;;;;5081709;28;13106;-71
2022/03/11 08:12:31;;;;;;;;;55.50;46.50;;;;;;;;5081105;28;9745;-71
2022/03/11 08:14:59;;;;;;;;;54.25;45.00;;;;;;;;5081369;28;11405;-70
2022/03/11 08:17:26;;;;;;;;;57.75;46.50;;;;;;;;5078868;28;11495;-70
2022/03/11 08:19:51;;;;;;;;;60.75;49.50;;;;;;;;5081684;28;11466;-70
2022/03/11 08:22:17;;;;;;;;;57.75;47.00;;;;;;;;5083661;28;11021;-70
2022/03/11 08:24:42;;;;;;;;;49.00;43.00;;;;;;;;5075779;28;13651;-69
2022/03/11 08:27:08;;;;;;;;;59.00;46.33;;;;;;;;5070329;28;13502;-71
2022/03/11 08:29:34;;;;;;;;;54.00;44.67;;;;;;;;5068051;28;13240;-71
2022/03/11 08:31:59;;;;;;;;;29.33;24.00;;;;;;;;5068300;28;11387;-71
2022/03/11 08:34:25;;;;;;;;;54.33;46.00;;;;;;;;5069307;28;13542;-70
2022/03/11 08:36:50;;;;;;;;;49.67;40.33;;;;;;;;5066770;28;10673;-70
2022/03/11 08:39:16;;;;;;;;;49.33;39.33;;;;;;;;5068354;28;14530;-70
2022/03/11 08:41:41;;;;;;;;;52.00;43.00;;;;;;;;5067972;28;11596;-70
2022/03/11 08:44:06;;;;;;;;;49.75;40.50;;;;;;;;5066577;28;14576;-71
2022/03/11 08:46:32;;;;;;;;;50.75;41.25;;;;;;;;5067134;28;13293;-72
2022/03/11 08:48:57;;;;;;;;;47.75;40.25;;;;;;;;5068334;28;13925;-71
2022/03/11 08:51:23;;;;;;;;;48.50;41.25;;;;;;;;5068537;28;10542;-71
2022/03/11 08:53:48;;;;;;;;;38.00;33.75;;;;;;;;5079396;28;10675;-71
2022/03/11 08:56:15;;;;;;;;;46.75;39.00;;;;;;;;5077103;28;12673;-71
2022/03/11 08:58:40;;;;;;;;;49.75;38.50;;;;;;;;5073989;28;13573;-71
2022/03/11 09:01:06;;;;;;;;;46.25;37.75;;;;;;;;5068925;28;11471;-71
2022/03/11 09:03:31;;;;;;;;;46.50;38.00;;;;;;;;5066365;28;11920;-71
2022/03/11 09:05:58;;;;;;;;;47.00;38.00;;;;;;;;5068382;28;10339;-71
2022/03/11 09:08:23;;;;;;;;;45.25;38.75;;;;;;;;5070932;28;8947;-70
2022/03/11 09:10:48;;;;;;;;;45.00;37.00;;;;;;;;5075880;28;11594;-70
2022/03/11 09:13:14;;;;;;;;;49.25;40.75;;;;;;;;5069828;28;10609;-71
2022/03/11 09:15:39;;;;;;;;;80.33;76.00;;;;;;;;5044998;28;14740;-71
2022/03/11 09:18:04;;;;;;;;;75.67;66.00;;;;;;;;5067192;28;13411;-70
2022/03/11 09:20:29;;;;;;;;;52.00;43.00;;;;;;;;5066852;28;13405;-70
2022/03/11 09:22:55;;;;;;;;;52.25;43.25;;;;;;;;5040338;28;13555;-71
2022/03/11 09:25:23;;;;;;;;;47.75;38.00;;;;;;;;5078864;28;8894;-71
2022/03/11 09:27:48;;;;;;;;;32.00;28.25;;;;;;;;5060399;28;13900;-73
2022/03/11 09:30:14;;;;;;;;;34.25;30.00;;;;;;;;5060613;28;13648;-74
2022/03/11 09:32:39;;;;;;;;;26.33;26.33;;;;;;;;5078873;28;12462;-73
2022/03/11 09:35:05;;;;;;;;;32.75;30.75;;;;;;;;5078598;28;13473;-71
2022/03/11 09:37:33;;;;;;;;;20.33;17.67;;;;;;;;5077845;28;12531;-70
2022/03/11 09:39:58;;;;;;;;;15.75;15.75;;;;;;;;5060371;28;14027;-74
2022/03/11 09:42:24;;;;;;;;;17.33;15.00;;;;;;;;5060892;28;14931;-74
2022/03/11 09:44:51;;;;;;;;;14.00;14.00;;;;;;;;5078845;28;11564;-76
2022/03/11 09:47:16;;;;;;;;;12.25;12.00;;;;;;;;5071892;28;11290;-75
2022/03/11 09:49:41;;;;;;;;;13.00;10.67;;;;;;;;5120404;28;10487;-74
2022/03/11 09:52:08;;;;;;;;;16.33;15.67;;;;;;;;5119810;28;11425;-76
2022/03/11 09:54:34;;;;;;;;;12.25;11.75;;;;;;;;5101067;28;12828;-74
2022/03/11 09:56:59;;;;;;;;;11.67;11.67;;;;;;;;5101029;28;13334;-74
2022/03/11 09:59:25;;;;;;;;;15.00;15.00;;;;;;;;5119783;28;11502;-74
2022/03/11 10:01:53;;;;;;;;;16.00;15.33;;;;;;;;5119251;28;12548;-76
2022/03/11 10:04:19;;;;;;;;;16.00;14.00;;;;;;;;5101185;28;11816;-77
2022/03/11 10:06:45;;;;;;;;;16.67;13.67;;;;;;;;5100743;28;9481;-77
2022/03/11 10:09:17;;;;;;;;;17.75;17.25;;;;;;;;5101195;28;12839;-78
2022/03/11 10:11:42;;;;;;;;;16.25;14.75;;;;;;;;5119694;28;13051;-76
2022/03/11 10:14:08;;;;;;;;;14.67;14.67;;;;;;;;5097045;28;10471;-74
2022/03/11 10:16:34;;;;;;;;;13.25;13.25;;;;;;;;5085545;28;11475;-75
2022/03/11 10:19:06;;;;;;;;;15.00;15.00;;;;;;;;5087411;28;11376;-74
2022/03/11 10:21:36;;;;;;;;;14.50;14.00;;;;;;;;5085559;28;11468;-74
2022/03/11 10:24:03;;;;;;;;;17.75;16.00;;;;;;;;5080266;28;12275;-74
2022/03/11 10:26:40;;;;;;;;;15.75;15.25;;;;;;;;5077980;28;10987;-74
2022/03/11 10:29:06;;;;;;;;;17.00;14.00;;;;;;;;5078013;28;11596;-75
2022/03/11 10:31:32;;;;;;;;;17.00;14.50;;;;;;;;5087024;28;11956;-74
2022/03/11 10:34:11;;;;;;;;;18.00;17.00;;;;;;;;5089405;28;8927;-74
2022/03/11 10:36:36;;;;;;;;;16.00;15.00;;;;;;;;5068074;28;13322;-73
2022/03/11 10:39:12;;;;;;;;;14.00;13.00;;;;;;;;5068245;28;8872;-74
2022/03/11 10:41:37;;;;;;;;;16.50;15.25;;;;;;;;5088191;28;8913;-73
2022/03/11 10:44:05;;;;;;;;;15.00;14.67;;;;;;;;5089563;28;11372;-72
2022/03/11 10:46:30;;;;;;;;;3.75;2.00;;;;;;;;5088757;28;11470;-74
2022/03/11 10:48:56;;;;;;;;;14.00;12.67;;;;;;;;5086235;28;22793;-73
2022/03/11 10:51:28;;;;;;;;;14.00;13.00;;;;;;;;5094738;28;23759;-74
2022/03/11 10:53:55;;;;;;;;;17.50;17.50;;;;;;;;5096961;28;8953;-74
2022/03/11 10:56:26;;;;;;;;;15.25;13.75;;;;;;;;5095095;28;15201;-74
2022/03/11 10:58:52;;;;;;;;;14.75;14.00;;;;;;;;5098864;28;11455;-73
2022/03/11 11:01:32;;;;;;;;;15.33;13.00;;;;;;;;5098745;28;11865;-73
2022/03/11 11:03:58;;;;;;;;;15.00;15.00;;;;;;;;5098578;28;11084;-74
2022/03/11 11:06:23;;;;;;;;;14.75;14.00;;;;;;;;5098964;28;9568;-73
2022/03/11 11:08:49;;;;;;;;;17.00;13.00;;;;;;;;5098185;28;10347;-78
2022/03/11 11:11:14;;;;;;;;;14.25;12.25;;;;;;;;5097756;28;10339;-71
2022/03/11 11:13:39;;;;;;;;;15.00;13.00;;;;;;;;5097940;28;11441;-73
2022/03/11 11:16:06;;;;;;;;;17.50;15.00;;;;;;;;5097327;28;11596;-73
2022/03/11 11:18:33;;;;;;;;;15.00;14.00;;;;;;;;5098454;28;10580;-71
2022/03/11 11:20:58;;;;;;;;;12.25;10.25;;;;;;;;5097486;28;10731;-72
2022/03/11 11:23:24;;;;;;;;;18.25;15.50;;;;;;;;5090841;28;11670;-72
2022/03/11 11:25:50;;;;;;;;;13.25;12.00;;;;;;;;5082254;28;11898;-72
2022/03/11 11:28:18;;;;;;;;;15.75;13.00;;;;;;;;5077380;28;11518;-73
2022/03/11 11:30:45;;;;;;;;;17.75;17.25;;;;;;;;5076768;28;10777;-72
2022/03/11 11:33:11;;;;;;;;;12.00;12.00;;;;;;;;5085549;28;12217;-74
2022/03/11 11:35:38;;;;;;;;;13.75;12.25;;;;;;;;5097178;28;11425;-75
2022/03/11 11:38:04;;;;;;;;;11.50;11.00;;;;;;;;5097471;28;11812;-79
2022/03/11 11:40:39;;;;;;;;;14.75;11.50;;;;;;;;5097262;28;11608;-75
2022/03/11 11:43:17;;;;;;;;;12.50;11.25;;;;;;;;5096747;28;12153;-74
2022/03/11 11:45:49;;;;;;;;;14.50;13.50;;;;;;;;5097741;28;11546;-73
2022/03/11 11:48:41;;;;;;;;;15.50;13.75;;;;;;;;5097340;28;11544;-74
2022/03/11 11:51:13;;;;;;;;;13.25;12.75;;;;;;;;5065756;28;11929;-77
2022/03/11 11:53:52;;;;;;;;;17.50;14.00;;;;;;;;5083367;28;11474;-75
2022/03/11 11:56:29;;;;;;;;;17.75;17.50;;;;;;;;5065313;28;13660;-75
2022/03/11 11:58:58;;;;;;;;;12.00;10.00;;;;;;;;5066675;28;11377;-76
2022/03/11 12:01:42;;;;;;;;;11.75;10.75;;;;;;;;5088368;28;12106;-77
2022/03/11 12:04:27;;;;;;;;;17.00;12.75;;;;;;;;5090039;28;11527;-73
2022/03/11 12:06:55;;;;;;;;;11.00;10.50;;;;;;;;5088512;28;11654;-77
2022/03/11 12:09:42;;;;;;;;;11.75;10.25;;;;;;;;5089047;28;11838;-70
2022/03/11 12:12:30;;;;;;;;;12.25;12.25;;;;;;;;5089415;28;11388;-71
2022/03/11 12:14:59;;;;;;;;;11.25;11.25;;;;;;;;5084447;28;11380;-71
2022/03/11 12:17:37;;;;;;;;;14.00;10.00;;;;;;;;5088630;28;12199;-70
2022/03/11 12:20:22;;;;;;;;;11.75;10.00;;;;;;;;5089656;28;11527;-71
2022/03/11 12:23:00;;;;;;;;;14.50;11.50;;;;;;;;5089616;28;11399;-71
2022/03/11 12:25:36;;;;;;;;;13.50;10.00;;;;;;;;5089559;28;11554;-71
2022/03/11 12:28:13;;;;;;;;;10.75;9.75;;;;;;;;5089111;28;11667;-71
2022/03/11 12:30:40;;;;;;;;;7.75;5.00;;;;;;;;5087604;28;21653;-72
2022/03/11 12:33:07;;;;;;;;;13.00;13.00;;;;;;;;5087027;28;21824;-71
2022/03/11 12:35:33;;;;;;;;;7.00;5.75;;;;;;;;5078996;28;23747;-71
2022/03/11 12:37:58;;;;;;;;;13.75;13.75;;;;;;;;5078990;28;22523;-72
2022/03/11 12:40:24;;;;;;;;;15.50;13.50;;;;;;;;5078814;28;22353;-72
2022/03/11 12:42:56;;;;;;;;;8.75;8.75;;;;;;;;5078661;28;11552;-73
2022/03/11 12:45:41;;;;;;;;;8.75;8.00;;;;;;;;5066224;28;22299;-71
2022/03/11 12:48:07;;;;;;;;;8.25;7.50;;;;;;;;5088417;28;11372;-71
2022/03/11 12:50:33;;;;;;;;;7.50;7.00;;;;;;;;5087045;28;11426;-71
2022/03/11 12:52:59;;;;;;;;;10.50;8.50;;;;;;;;5088955;28;12459;-71
2022/03/11 12:55:26;;;;;;;;;7.00;7.00;;;;;;;;5087282;28;22719;-70
2022/03/11 12:57:53;;;;;;;;;11.25;7.25;;;;;;;;5086433;28;21996;-71
2022/03/11 13:00:22;;;;;;;;;8.00;7.00;;;;;;;;5088338;28;22818;-70
2022/03/11 13:02:51;;;;;;;;;9.50;9.25;;;;;;;;5068108;28;24078;-71
2022/03/11 13:05:18;;;;;;;;;9.75;7.00;;;;;;;;5087038;28;12568;-72
2022/03/11 13:07:43;;;;;;;;;9.00;8.00;;;;;;;;5088048;28;11409;-73
2022/03/11 13:10:21;;;;;;;;;11.25;10.75;;;;;;;;5087769;28;11395;-71
2022/03/11 13:12:47;;;;;;;;;12.00;8.75;;;;;;;;5066580;28;22611;-71
2022/03/11 13:15:16;;;;;;;;;9.25;5.25;;;;;;;;5085120;28;21480;-71
2022/03/11 13:17:45;;;;;;;;;8.25;7.75;;;;;;;;5088411;28;21444;-72
2022/03/11 13:20:29;;;;;;;;;11.25;9.00;;;;;;;;5088583;28;11384;-72
2022/03/11 13:22:55;;;;;;;;;11.75;11.75;;;;;;;;5085157;28;22037;-72
2022/03/11 13:25:27;;;;;;;;;15.00;11.50;;;;;;;;5069956;28;21949;-74
2022/03/11 13:27:53;;;;;;;;;11.00;11.00;;;;;;;;5085424;28;11996;-73
2022/03/11 13:30:34;;;;;;;;;12.25;11.25;;;;;;;;5094884;28;12484;-71
2022/03/11 13:33:13;;;;;;;;;12.50;11.00;;;;;;;;5097561;28;12653;-71
2022/03/11 13:35:38;;;;;;;;;11.75;11.75;;;;;;;;5098742;28;12131;-72
2022/03/11 13:38:03;;;;;;;;;13.50;12.75;;;;;;;;5085856;28;11632;-73
2022/03/11 13:40:29;;;;;;;;;12.75;11.50;;;;;;;;5085550;28;10531;-72
2022/03/11 13:42:55;;;;;;;;;11.50;11.50;;;;;;;;5092886;28;11964;-75
2022/03/11 13:45:33;;;;;;;;;14.50;12.75;;;;;;;;5080772;28;9286;-72
2022/03/11 13:48:08;;;;;;;;;12.75;11.00;;;;;;;;5087575;28;11784;-70
2022/03/11 13:50:36;;;;;;;;;14.25;13.00;;;;;;;;5077950;28;11635;-72
2022/03/11 13:53:03;;;;;;;;;12.00;10.00;;;;;;;;5059749;28;11833;-72
2022/03/11 13:55:38;;;;;;;;;13.25;12.00;;;;;;;;5065692;28;12702;-73
2022/03/11 13:58:14;;;;;;;;;13.00;13.00;;;;;;;;5098079;28;11762;-71
2022/03/11 14:00:39;;;;;;;;;14.00;12.50;;;;;;;;5098514;28;12281;-71
2022/03/11 14:03:15;;;;;;;;;11.00;10.50;;;;;;;;5098838;28;11964;-71
2022/03/11 14:05:41;;;;;;;;;10.00;7.00;;;;;;;;5080009;28;10648;-71
2022/03/11 14:08:07;;;;;;;;;11.00;10.25;;;;;;;;5098332;28;21438;-70
2022/03/11 14:10:40;;;;;;;;;12.00;11.50;;;;;;;;5097512;28;21685;-71
2022/03/11 14:13:06;;;;;;;;;12.00;11.00;;;;;;;;5097354;28;11810;-71
2022/03/11 14:15:33;;;;;;;;;10.00;9.25;;;;;;;;5098449;28;11450;-72
2022/03/11 14:17:59;;;;;;;;;12.75;11.25;;;;;;;;5097468;28;22712;-72
2022/03/11 14:20:24;;;;;;;;;11.00;11.00;;;;;;;;5078934;28;23357;-71
2022/03/11 14:22:49;;;;;;;;;10.25;10.25;;;;;;;;5096905;28;11370;-71
2022/03/11 14:25:15;;;;;;;;;11.75;11.75;;;;;;;;5079748;28;13584;-72
2022/03/11 14:27:40;;;;;;;;;14.75;12.75;;;;;;;;5098617;28;10593;-72
2022/03/11 14:30:07;;;;;;;;;9.50;9.50;;;;;;;;5098628;28;8788;-71
2022/03/11 14:32:32;;;;;;;;;6.00;5.75;;;;;;;;5097980;28;23565;-71
2022/03/11 14:34:57;;;;;;;;;10.50;10.50;;;;;;;;5098093;28;11890;-70
2022/03/11 14:37:23;;;;;;;;;14.00;12.25;;;;;;;;5097319;28;22185;-71
2022/03/11 14:39:48;;;;;;;;;13.25;11.25;;;;;;;;5097766;28;11406;-71
2022/03/11 14:42:13;;;;;;;;;12.00;11.75;;;;;;;;5097162;28;10617;-71
2022/03/11 14:44:39;;;;;;;;;11.75;8.25;;;;;;;;5097814;28;11014;-71
2022/03/11 14:47:04;;;;;;;;;14.25;12.50;;;;;;;;5090464;28;22606;-72
2022/03/11 14:49:29;;;;;;;;;11.00;9.25;;;;;;;;5074918;28;22121;-71
2022/03/11 14:51:55;;;;;;;;;11.00;8.00;;;;;;;;5077892;28;21404;-72
2022/03/11 14:54:20;;;;;;;;;9.00;8.00;;;;;;;;5078682;28;8790;-73
2022/03/11 14:56:49;;;;;;;;;2.00;1.00;;;;;;;;5078080;28;16463;-72
2022/03/11 14:59:14;;;;;;;;;7.50;7.50;;;;;;;;5077291;28;9821;-73
2022/03/11 15:01:40;;;;;;;;;11.00;8.50;;;;;;;;5076568;28;11532;-73
2022/03/11 15:04:06;;;;;;;;;10.00;6.50;;;;;;;;5057795;28;22013;-72
2022/03/11 15:06:31;;;;;;;;;7.50;7.00;;;;;;;;5076140;28;8797;-73
2022/03/11 15:08:57;;;;;;;;;10.25;8.00;;;;;;;;5076860;28;22725;-72
2022/03/11 15:11:25;;;;;;;;;13.00;9.50;;;;;;;;5076948;28;21399;-73
2022/03/11 15:13:51;;;;;;;;;8.00;8.00;;;;;;;;5058609;28;10775;-73
2022/03/11 15:16:17;;;;;;;;;10.75;8.75;;;;;;;;5076786;28;21400;-71
2022/03/11 15:18:42;;;;;;;;;8.00;7.00;;;;;;;;5076701;28;21653;-72
2022/03/11 15:21:08;;;;;;;;;9.50;6.75;;;;;;;;5076911;28;21619;-72
2022/03/11 15:23:33;;;;;;;;;12.75;9.00;;;;;;;;5077402;28;11325;-72
2022/03/11 15:25:59;;;;;;;;;8.75;8.50;;;;;;;;5076877;28;21361;-72
2022/03/11 15:28:25;;;;;;;;;12.25;9.00;;;;;;;;5077123;28;21820;-72
2022/03/11 15:30:52;;;;;;;;;12.50;8.25;;;;;;;;5077450;28;21580;-72
2022/03/11 15:33:18;;;;;;;;;12.25;12.00;;;;;;;;5077512;28;10450;-72
2022/03/11 15:35:43;;;;;;;;;14.50;12.00;;;;;;;;5060868;28;23875;-72
2022/03/11 15:38:09;;;;;;;;;11.25;11.25;;;;;;;;5086013;28;11588;-72
2022/03/11 15:40:36;;;;;;;;;12.00;10.50;;;;;;;;5122462;28;11553;-72
2022/03/11 15:43:04;;;;;;;;;13.75;9.50;;;;;;;;5121306;28;11436;-74
2022/03/11 15:45:30;;;;;;;;;13.50;10.00;;;;;;;;5121865;28;21548;-72
2022/03/11 15:47:56;;;;;;;;;13.00;12.00;;;;;;;;5121333;28;22028;-71
2022/03/11 15:50:24;;;;;;;;;14.25;12.00;;;;;;;;5121999;28;11400;-73
2022/03/11 15:52:50;;;;;;;;;16.25;12.00;;;;;;;;5103608;28;9299;-73
2022/03/11 15:55:17;;;;;;;;;12.25;12.00;;;;;;;;5121967;28;11408;-72
2022/03/11 15:57:44;;;;;;;;;13.75;10.25;;;;;;;;5102559;28;9772;-72
2022/03/11 16:00:11;;;;;;;;;17.25;13.25;;;;;;;;5121352;28;12343;-76
2022/03/11 16:02:36;;;;;;;;;13.50;11.25;;;;;;;;5102280;28;11718;-77
2022/03/11 16:05:02;;;;;;;;;15.50;11.75;;;;;;;;5120826;28;11524;-72
2022/03/11 16:07:27;;;;;;;;;12.00;12.00;;;;;;;;5121445;28;10786;-74
2022/03/11 16:09:52;;;;;;;;;16.50;12.50;;;;;;;;5120013;28;11599;-74
2022/03/11 16:12:18;;;;;;;;;10.00;10.00;;;;;;;;5119070;28;11548;-74
2022/03/11 16:14:44;;;;;;;;;12.50;12.00;;;;;;;;5102770;28;10931;-75
2022/03/11 16:17:10;;;;;;;;;11.75;11.25;;;;;;;;5121549;28;10470;-74
2022/03/11 16:19:35;;;;;;;;;11.75;11.25;;;;;;;;5121247;28;11450;-74
2022/03/11 16:22:01;;;;;;;;;15.25;12.50;;;;;;;;5121219;28;11382;-74
2022/03/11 16:24:26;;;;;;;;;11.75;11.50;;;;;;;;5103925;28;12433;-76
2022/03/11 16:26:51;;;;;;;;;14.00;11.75;;;;;;;;5080765;28;10190;-76
2022/03/11 16:29:17;;;;;;;;;13.50;11.75;;;;;;;;5087402;28;11505;-75
2022/03/11 16:31:45;;;;;;;;;15.75;12.75;;;;;;;;5089012;28;9535;-74
2022/03/11 16:34:10;;;;;;;;;12.00;12.00;;;;;;;;5091756;28;10989;-72
2022/03/11 16:36:36;;;;;;;;;15.00;12.00;;;;;;;;5099474;28;12654;-72
2022/03/11 16:39:02;;;;;;;;;17.75;12.25;;;;;;;;5061223;28;9417;-72
2022/03/11 16:41:27;;;;;;;;;12.00;12.00;;;;;;;;5090262;28;11532;-73
2022/03/11 16:43:52;;;;;;;;;15.00;13.00;;;;;;;;5089030;28;12497;-73
2022/03/11 16:46:21;;;;;;;;;15.50;12.75;;;;;;;;5069827;28;10673;-72
2022/03/11 16:48:46;;;;;;;;;9.75;8.25;;;;;;;;5069284;28;10688;-72
2022/03/11 16:51:12;;;;;;;;;14.25;12.00;;;;;;;;5088510;28;22311;-73
2022/03/11 16:53:38;;;;;;;;;12.75;11.50;;;;;;;;5088851;28;22607;-73
2022/03/11 16:56:03;;;;;;;;;9.25;9.25;;;;;;;;5090462;28;11471;-73
2022/03/11 16:58:28;;;;;;;;;17.50;13.00;;;;;;;;5068923;28;24611;-72
2022/03/11 17:00:54;;;;;;;;;18.00;12.50;;;;;;;;5089911;28;23670;-73
2022/03/11 17:03:20;;;;;;;;;11.00;9.00;;;;;;;;5090558;28;11363;-73
2022/03/11 17:05:45;;;;;;;;;11.50;11.00;;;;;;;;5090866;28;21900;-73
2022/03/11 17:08:10;;;;;;;;;13.50;11.25;;;;;;;;5099301;28;21938;-73
2022/03/11 17:10:40;;;;;;;;;15.75;14.50;;;;;;;;5099654;28;11367;-73
2022/03/11 17:13:05;;;;;;;;;13.25;12.00;;;;;;;;5099757;28;11616;-74
2022/03/11 17:15:31;;;;;;;;;19.50;15.25;;;;;;;;5088241;28;11490;-76
2022/03/11 17:17:57;;;;;;;;;17.50;13.25;;;;;;;;5084993;28;11685;-73
2022/03/11 17:20:22;;;;;;;;;20.00;15.75;;;;;;;;5088945;28;8801;-73
2022/03/11 17:22:47;;;;;;;;;13.25;13.00;;;;;;;;5087538;28;12262;-73
2022/03/11 17:25:13;;;;;;;;;12.00;11.00;;;;;;;;5060848;28;13602;-74
2022/03/11 17:27:39;;;;;;;;;17.00;13.00;;;;;;;;5087327;28;11486;-74
2022/03/11 17:30:05;;;;;;;;;14.25;12.00;;;;;;;;5100190;28;8784;-74
2022/03/11 17:32:30;;;;;;;;;21.75;15.25;;;;;;;;5094885;28;10397;-74
2022/03/11 17:34:56;;;;;;;;;15.75;12.75;;;;;;;;5079323;28;14322;-74
2022/03/11 17:37:22;;;;;;;;;16.25;15.00;;;;;;;;5078811;28;12579;-75
2022/03/11 17:39:47;;;;;;;;;1.25;1.25;;;;;;;;5079045;28;11495;-75
2022/03/11 17:42:13;;;;;;;;;12.75;11.00;;;;;;;;5078381;28;22572;-73
2022/03/11 17:44:39;;;;;;;;;14.00;13.50;;;;;;;;5078780;28;22467;-75
2022/03/11 17:47:04;;;;;;;;;16.00;14.50;;;;;;;;5079380;28;11593;-72
2022/03/11 17:49:30;;;;;;;;;17.25;12.50;;;;;;;;5083958;28;8849;-73
2022/03/11 17:51:59;;;;;;;;;15.00;11.25;;;;;;;;5087542;28;10545;-73
2022/03/11 17:54:25;;;;;;;;;20.75;18.50;;;;;;;;5081844;28;11418;-72
2022/03/11 17:56:50;;;;;;;;;20.75;15.25;;;;;;;;5078014;28;13957;-73
2022/03/11 17:59:16;;;;;;;;;17.75;13.00;;;;;;;;5078919;28;8829;-73
2022/03/11 18:01:44;;;;;;;;;16.00;12.00;;;;;;;;5078996;28;13221;-72
2022/03/11 18:04:10;;;;;;;;;17.50;15.75;;;;;;;;5079382;28;10522;-72
2022/03/11 18:06:36;;;;;;;;;15.25;12.00;;;;;;;;5060953;28;11521;-72
2022/03/11 18:09:03;;;;;;;;;14.00;12.50;;;;;;;;5078898;28;11975;-71
2022/03/11 18:11:29;;;;;;;;;18.00;12.50;;;;;;;;5079268;28;11446;-72
2022/03/11 18:13:55;;;;;;;;;19.50;15.25;;;;;;;;5060005;28;11434;-71
2022/03/11 18:16:23;;;;;;;;;23.00;22.00;;;;;;;;5079108;28;11705;-71
2022/03/11 18:18:48;;;;;;;;;23.25;19.75;;;;;;;;5081260;28;13870;-71
2022/03/11 18:21:14;;;;;;;;;17.25;15.75;;;;;;;;5086302;28;12507;-71
2022/03/11 18:23:39;;;;;;;;;15.50;14.25;;;;;;;;5085235;28;10390;-71
2022/03/11 18:26:05;;;;;;;;;21.25;18.00;;;;;;;;5086120;28;10411;-73
2022/03/11 18:28:30;;;;;;;;;19.75;15.25;;;;;;;;5092479;28;13538;-72
2022/03/11 18:30:56;;;;;;;;;20.25;14.25;;;;;;;;5098449;28;13516;-72
2022/03/11 18:33:22;;;;;;;;;22.75;15.75;;;;;;;;5100972;28;11929;-72
2022/03/11 18:35:48;;;;;;;;;20.00;15.00;;;;;;;;5120139;28;10764;-72
2022/03/11 18:38:13;;;;;;;;;17.75;16.00;;;;;;;;5118820;28;12153;-73
2022/03/11 18:40:39;;;;;;;;;17.75;13.75;;;;;;;;5119031;28;12372;-72
2022/03/11 18:43:05;;;;;;;;;20.00;15.00;;;;;;;;5100149;28;8843;-72
2022/03/11 18:45:30;;;;;;;;;18.00;14.75;;;;;;;;5100775;28;15277;-72
2022/03/11 18:47:56;;;;;;;;;21.75;18.00;;;;;;;;5118961;28;13387;-72
2022/03/11 18:50:21;;;;;;;;;17.00;13.75;;;;;;;;5119173;28;13274;-72
2022/03/11 18:52:47;;;;;;;;;21.25;18.25;;;;;;;;5081998;28;13710;-72
2022/03/11 18:55:13;;;;;;;;;18.50;13.75;;;;;;;;5078946;28;12332;-74
2022/03/11 18:57:39;;;;;;;;;20.25;16.75;;;;;;;;5078412;28;12191;-73
2022/03/11 19:00:05;;;;;;;;;15.75;13.00;;;;;;;;5077932;28;12593;-73
2022/03/11 19:02:31;;;;;;;;;15.00;13.75;;;;;;;;5077821;28;13494;-74
2022/03/11 19:04:57;;;;;;;;;13.00;13.00;;;;;;;;5077833;28;11403;-73
2022/03/11 19:07:22;;;;;;;;;14.00;14.00;;;;;;;;5081065;28;11525;-73
2022/03/11 19:09:48;;;;;;;;;14.50;14.00;;;;;;;;5076808;28;10164;-73
2022/03/11 19:12:15;;;;;;;;;17.00;13.50;;;;;;;;5057770;28;9281;-73
2022/03/11 19:14:41;;;;;;;;;11.50;11.50;;;;;;;;5078341;28;11577;-73
2022/03/11 19:17:07;;;;;;;;;14.25;14.00;;;;;;;;5077727;28;12332;-73
2022/03/11 19:19:33;;;;;;;;;17.50;14.00;;;;;;;;5059769;28;12788;-73
2022/03/11 19:21:59;;;;;;;;;13.50;12.50;;;;;;;;5079482;28;11410;-73
2022/03/11 19:24:27;;;;;;;;;20.67;14.00;;;;;;;;5089629;28;11460;-73
2022/03/11 19:26:53;;;;;;;;;17.33;14.00;;;;;;;;5065536;28;13701;-73
2022/03/11 19:29:18;;;;;;;;;15.25;14.50;;;;;;;;5084418;28;11673;-73
2022/03/11 19:31:45;;;;;;;;;16.67;14.00;;;;;;;;5095246;28;11355;-72
2022/03/11 19:34:15;;;;;;;;;15.33;13.67;;;;;;;;5098435;28;11513;-71
2022/03/11 19:36:41;;;;;;;;;15.67;14.67;;;;;;;;5097686;28;11932;-71
2022/03/11 19:39:07;;;;;;;;;17.00;16.33;;;;;;;;5098024;28;11390;-72
2022/03/11 19:41:39;;;;;;;;;17.00;16.00;;;;;;;;5097978;28;11528;-72
2022/03/11 19:44:05;;;;;;;;;20.67;14.67;;;;;;;;5097778;28;11440;-71
2022/03/11 19:46:31;;;;;;;;;20.67;17.67;;;;;;;;5087491;28;13955;-70
2022/03/11 19:49:00;;;;;;;;;21.67;18.00;;;;;;;;5084454;28;8768;-71
2022/03/11 19:51:26;;;;;;;;;18.00;14.00;;;;;;;;5086681;28;11756;-71
2022/03/11 19:53:53;;;;;;;;;21.00;14.67;;;;;;;;5084398;28;12432;-71
2022/03/11 19:56:19;;;;;;;;;18.67;12.00;;;;;;;;5086718;28;14656;-71
2022/03/11 19:58:45;;;;;;;;;18.00;17.67;;;;;;;;5078778;28;13638;-72
2022/03/11 20:01:10;;;;;;;;;19.33;14.00;;;;;;;;5077217;28;12285;-72
2022/03/11 20:03:36;;;;;;;;;5.67;4.33;;;;;;;;5077518;28;11400;-72
2022/03/11 20:06:02;;;;;;;;;17.33;16.00;;;;;;;;5087551;28;23295;-72
2022/03/11 20:08:28;;;;;;;;;18.00;16.00;;;;;;;;5091494;28;22432;-73
2022/03/11 20:10:54;;;;;;;;;20.00;15.33;;;;;;;;5088373;28;8854;-72
2022/03/11 20:13:20;;;;;;;;;16.00;13.67;;;;;;;;5084536;28;13749;-71
2022/03/11 20:15:46;;;;;;;;;17.00;16.00;;;;;;;;5077502;28;13957;-72
2022/03/11 20:18:13;;;;;;;;;21.33;13.67;;;;;;;;5077928;28;11522;-72
2022/03/11 20:20:40;;;;;;;;;24.33;20.00;;;;;;;;5083812;28;13302;-70
2022/03/11 20:23:06;;;;;;;;;23.00;20.00;;;;;;;;5090713;28;13086;-73
2022/03/11 20:25:31;;;;;;;;;16.67;12.67;;;;;;;;5087805;28;11583;-70
2022/03/11 20:27:57;;;;;;;;;17.67;17.33;;;;;;;;5090713;28;13513;-71
2022/03/11 20:30:23;;;;;;;;;17.33;13.33;;;;;;;;5091790;28;11353;-71
2022/03/11 20:32:49;;;;;;;;;14.67;14.00;;;;;;;;5082969;28;10206;-71
2022/03/11 20:35:17;;;;;;;;;17.67;16.33;;;;;;;;5082442;28;11692;-71
2022/03/11 20:37:44;;;;;;;;;18.33;17.00;;;;;;;;5086438;28;11442;-71
2022/03/11 20:40:10;;;;;;;;;16.67;13.33;;;;;;;;5070432;28;14035;-72
2022/03/11 20:42:37;;;;;;;;;20.00;16.67;;;;;;;;5079272;28;12906;-72
2022/03/11 20:45:03;;;;;;;;;20.00;17.00;;;;;;;;5079539;28;13457;-72
2022/03/11 20:47:29;;;;;;;;;14.33;13.00;;;;;;;;5083053;28;9183;-72
2022/03/11 20:49:56;;;;;;;;;15.67;15.33;;;;;;;;5087126;28;12203;-73
2022/03/11 20:52:23;;;;;;;;;20.33;16.00;;;;;;;;5085379;28;11490;-72
2022/03/11 20:54:48;;;;;;;;;20.00;19.00;;;;;;;;5079855;28;13346;-72
2022/03/11 20:57:14;;;;;;;;;20.00;19.00;;;;;;;;5080226;28;9514;-71
2022/03/11 20:59:39;;;;;;;;;16.33;16.33;;;;;;;;5079738;28;8848;-74
2022/03/11 21:02:08;;;;;;;;;17.67;16.00;;;;;;;;5080409;28;13711;-73
2022/03/11 21:04:34;;;;;;;;;23.33;18.67;;;;;;;;5080048;28;11608;-74
2022/03/11 21:07:00;;;;;;;;;19.67;19.00;;;;;;;;5080305;28;13475;-74
2022/03/11 21:09:25;;;;;;;;;20.33;19.00;;;;;;;;5079457;28;13367;-74
2022/03/11 21:11:51;;;;;;;;;19.67;17.33;;;;;;;;5078296;28;12271;-73
2022/03/11 21:14:17;;;;;;;;;15.00;14.33;;;;;;;;5079836;28;13344;-73
2022/03/11 21:16:42;;;;;;;;;19.33;15.00;;;;;;;;5060741;28;12700;-73
2022/03/11 21:19:12;;;;;;;;;20.67;17.33;;;;;;;;5080358;28;12028;-73
2022/03/11 21:21:38;;;;;;;;;19.33;15.00;;;;;;;;5079107;28;13843;-72
2022/03/11 21:24:03;;;;;;;;;24.67;20.00;;;;;;;;5061173;28;15337;-73
2022/03/11 21:26:29;;;;;;;;;26.67;21.33;;;;;;;;5079669;28;12332;-73
2022/03/11 21:28:57;;;;;;;;;16.00;15.67;;;;;;;;5078469;28;13097;-73
2022/03/11 21:31:23;;;;;;;;;33.00;26.67;;;;;;;;5061315;28;15337;-73
2022/03/11 21:33:48;;;;;;;;;29.33;26.67;;;;;;;;5079835;28;10369;-73